Time;durP1;ratioP1;P1;durP2;ratioP2;P2;SDS_P1;SDS_P2;PMS_P1;PMS_P2;Temp;Humidity;BMP_temperature;BMP_pressure;BME280_temperature;BME280_humidity;BME280_pressure;Samples;Min_cycle;Max_cycle;Signal;HPM_P1;HPM_P2
2020/12/07 00:02:19;;;;;;;24.63;9.57;;;4.10;99.90;;;;;;5096569;28;20032;-75
2020/12/07 00:04:44;;;;;;;23.08;10.05;;;4.10;99.90;;;;;;5095805;28;20048;-75
2020/12/07 00:07:10;;;;;;;23.67;9.43;;;4.20;99.90;;;;;;5095326;28;20070;-75
2020/12/07 00:09:35;;;;;;;25.75;10.70;;;4.20;99.90;;;;;;5097039;28;20480;-74
2020/12/07 00:12:01;;;;;;;25.13;10.52;;;4.30;99.90;;;;;;5097061;28;20031;-74
2020/12/07 00:14:26;;;;;;;22.50;10.13;;;4.30;99.90;;;;;;5096757;28;20024;-74
2020/12/07 00:16:52;;;;;;;22.67;10.18;;;4.40;99.90;;;;;;5094495;28;20020;-74
2020/12/07 00:19:17;;;;;;;24.67;9.77;;;4.40;99.90;;;;;;5096690;28;20030;-74
2020/12/07 00:21:43;;;;;;;28.85;11.60;;;4.50;99.90;;;;;;5096775;28;20032;-74
2020/12/07 00:24:10;;;;;;;28.83;10.77;;;4.50;99.90;;;;;;5097010;28;20023;-75
2020/12/07 00:26:35;;;;;;;28.80;10.40;;;4.60;99.90;;;;;;5095195;28;20459;-74
2020/12/07 00:29:01;;;;;;;25.05;10.95;;;4.50;99.90;;;;;;5096314;28;20063;-74
2020/12/07 00:31:26;;;;;;;28.42;12.13;;;4.60;99.90;;;;;;5096349;28;20020;-74
2020/12/07 00:33:58;;;;;;;26.45;11.38;;;4.60;99.90;;;;;;5096579;28;20032;-74
2020/12/07 00:36:24;;;;;;;25.58;10.80;;;4.60;99.90;;;;;;5095141;28;20427;-74
2020/12/07 00:38:50;;;;;;;29.95;11.40;;;4.60;99.90;;;;;;5096711;28;20491;-74
2020/12/07 00:41:19;;;;;;;25.67;10.93;;;4.60;99.90;;;;;;5096390;28;20058;-75
2020/12/07 00:43:45;;;;;;;27.33;10.45;;;4.60;99.90;;;;;;5095285;28;20028;-74
2020/12/07 00:46:11;;;;;;;26.25;10.63;;;4.60;99.90;;;;;;5096055;28;20062;-74
2020/12/07 00:48:36;;;;;;;23.88;10.77;;;4.60;99.90;;;;;;5096044;28;20020;-74
2020/12/07 00:51:02;;;;;;;28.13;10.70;;;4.60;99.90;;;;;;5095563;28;20024;-75
2020/12/07 00:53:27;;;;;;;30.42;11.75;;;4.60;99.90;;;;;;5096574;28;20020;-73
2020/12/07 00:55:53;;;;;;;22.85;9.88;;;4.60;99.90;;;;;;5095680;28;20028;-74
2020/12/07 00:58:18;;;;;;;26.90;10.68;;;4.60;99.90;;;;;;5096206;28;20028;-74
2020/12/07 01:00:44;;;;;;;27.05;10.57;;;4.60;99.90;;;;;;5095854;28;20095;-74
2020/12/07 01:03:09;;;;;;;21.60;10.05;;;4.60;99.90;;;;;;5095928;28;20022;-74
2020/12/07 01:05:35;;;;;;;30.70;10.52;;;4.60;99.90;;;;;;5095663;28;20020;-74
2020/12/07 01:08:00;;;;;;;27.55;11.07;;;4.60;99.90;;;;;;5094458;28;20089;-74
2020/12/07 01:10:26;;;;;;;27.83;11.13;;;4.70;99.90;;;;;;5094381;28;20028;-73
2020/12/07 01:12:51;;;;;;;24.48;10.48;;;4.70;99.90;;;;;;5096590;28;20032;-74
2020/12/07 01:15:17;;;;;;;23.60;9.95;;;4.70;99.90;;;;;;5094711;28;20031;-74
2020/12/07 01:17:42;;;;;;;25.05;9.13;;;4.60;99.90;;;;;;5095037;28;20020;-74
2020/12/07 01:20:08;;;;;;;22.08;9.60;;;4.70;99.90;;;;;;5095106;28;20137;-75
2020/12/07 01:22:33;;;;;;;19.67;8.68;;;4.70;99.90;;;;;;5094887;28;20024;-75
2020/12/07 01:24:59;;;;;;;22.13;9.18;;;4.70;99.90;;;;;;5094889;28;20107;-75
2020/12/07 01:27:24;;;;;;;23.65;9.50;;;4.70;99.90;;;;;;5094016;28;20019;-75
2020/12/07 01:29:50;;;;;;;20.90;9.20;;;4.70;99.90;;;;;;5095397;28;20099;-75
2020/12/07 01:32:15;;;;;;;23.65;9.15;;;4.70;99.90;;;;;;5095715;28;20020;-75
2020/12/07 01:34:41;;;;;;;20.70;8.25;;;4.70;99.90;;;;;;5095461;28;20072;-74
2020/12/07 01:37:06;;;;;;;20.13;9.13;;;4.70;99.90;;;;;;5094801;28;20120;-75
2020/12/07 01:39:32;;;;;;;21.65;9.60;;;4.70;99.90;;;;;;5093545;28;20030;-75
2020/12/07 01:41:57;;;;;;;24.55;9.35;;;4.70;99.90;;;;;;5094781;28;20032;-75
2020/12/07 01:44:23;;;;;;;21.52;9.30;;;4.70;99.90;;;;;;5094958;28;20012;-74
2020/12/07 01:46:49;;;;;;;21.13;9.20;;;4.70;99.90;;;;;;5095299;28;20073;-75
2020/12/07 01:49:14;;;;;;;21.90;9.27;;;4.70;99.90;;;;;;5094620;28;20020;-75
2020/12/07 01:51:40;;;;;;;19.55;8.48;;;4.70;99.90;;;;;;5095337;28;20028;-74
2020/12/07 01:54:06;;;;;;;22.92;8.98;;;4.70;99.90;;;;;;5095404;28;20485;-74
2020/12/07 01:56:31;;;;;;;20.17;7.30;;;4.70;99.90;;;;;;5094796;28;20115;-74
2020/12/07 01:58:58;;;;;;;23.45;9.07;;;4.70;99.90;;;;;;5094520;28;20099;-74
2020/12/07 02:01:24;;;;;;;19.35;8.05;;;4.70;99.90;;;;;;5093288;28;20069;-73
2020/12/07 02:03:50;;;;;;;21.73;8.07;;;4.70;99.90;;;;;;5093600;28;20063;-75
2020/12/07 02:06:15;;;;;;;20.42;7.40;;;4.70;99.90;;;;;;5094309;28;20028;-74
2020/12/07 02:08:41;;;;;;;20.75;8.40;;;4.80;99.90;;;;;;5094066;28;20028;-74
2020/12/07 02:11:06;;;;;;;16.48;7.32;;;4.80;99.90;;;;;;5094340;28;20026;-75
2020/12/07 02:13:32;;;;;;;17.08;7.05;;;4.80;99.90;;;;;;5094311;28;20032;-75
2020/12/07 02:15:58;;;;;;;20.63;7.70;;;4.80;99.90;;;;;;5094297;28;20020;-75
2020/12/07 02:18:24;;;;;;;22.45;8.18;;;4.90;99.90;;;;;;5094151;28;20404;-74
2020/12/07 02:20:49;;;;;;;19.85;8.07;;;4.90;99.90;;;;;;5093942;28;20153;-74
2020/12/07 02:23:16;;;;;;;22.50;7.40;;;4.90;99.90;;;;;;5094167;28;20032;-74
2020/12/07 02:25:42;;;;;;;18.73;6.75;;;4.90;99.90;;;;;;5092949;28;20427;-74
2020/12/07 02:28:07;;;;;;;18.65;8.38;;;5.00;99.90;;;;;;5092934;28;20024;-74
2020/12/07 02:30:33;;;;;;;19.10;6.95;;;5.00;99.90;;;;;;5094512;28;20511;-74
2020/12/07 02:32:58;;;;;;;18.48;7.65;;;5.00;99.90;;;;;;5094133;28;20035;-74
2020/12/07 02:35:24;;;;;;;20.30;7.63;;;5.00;99.90;;;;;;5093714;28;20016;-74
2020/12/07 02:37:49;;;;;;;17.35;8.05;;;5.00;99.90;;;;;;5093732;28;20028;-73
2020/12/07 02:40:15;;;;;;;24.80;8.75;;;5.00;99.90;;;;;;5093308;28;20077;-73
2020/12/07 02:42:42;;;;;;;17.20;7.90;;;5.00;99.90;;;;;;5093940;28;20032;-73
2020/12/07 02:45:08;;;;;;;19.85;8.07;;;5.00;99.90;;;;;;5093848;28;20105;-74
2020/12/07 02:47:34;;;;;;;18.40;8.02;;;5.00;99.90;;;;;;5093678;28;20027;-74
2020/12/07 02:50:00;;;;;;;27.42;8.32;;;5.00;99.90;;;;;;5093306;28;20107;-73
2020/12/07 02:52:27;;;;;;;21.00;8.60;;;4.90;99.90;;;;;;5093806;28;20050;-74
2020/12/07 02:54:54;;;;;;;19.92;7.97;;;4.90;99.90;;;;;;5093737;28;20115;-74
2020/12/07 02:57:21;;;;;;;17.10;7.38;;;4.90;99.90;;;;;;5093905;28;20099;-74
2020/12/07 02:59:48;;;;;;;20.17;8.18;;;4.90;99.90;;;;;;5092200;28;20073;-73
2020/12/07 03:02:14;;;;;;;23.25;8.38;;;4.90;99.90;;;;;;5093975;28;20020;-73
2020/12/07 03:04:39;;;;;;;18.83;7.60;;;4.90;99.90;;;;;;5093380;28;20073;-74
2020/12/07 03:07:05;;;;;;;16.70;7.63;;;4.90;99.90;;;;;;5094005;28;20028;-74
2020/12/07 03:09:31;;;;;;;18.25;7.55;;;4.90;99.90;;;;;;5093962;28;20039;-74
2020/12/07 03:11:57;;;;;;;19.33;7.63;;;4.90;99.90;;;;;;5093804;28;20024;-74
2020/12/07 03:14:22;;;;;;;19.58;7.35;;;4.90;99.90;;;;;;5092166;28;20024;-74
2020/12/07 03:16:48;;;;;;;18.65;6.82;;;4.90;99.90;;;;;;5093686;28;20079;-74
2020/12/07 03:19:13;;;;;;;19.02;7.53;;;4.90;99.90;;;;;;5091936;28;20026;-74
2020/12/07 03:21:39;;;;;;;15.75;7.20;;;4.90;99.90;;;;;;5093716;28;20112;-74
2020/12/07 03:24:05;;;;;;;16.15;6.68;;;4.90;99.90;;;;;;5092625;28;20484;-74
2020/12/07 03:26:34;;;;;;;17.65;6.60;;;4.90;99.90;;;;;;5092680;28;20031;-74
2020/12/07 03:29:02;;;;;;;;;;;5.00;99.90;;;;;;5093606;28;20027;-74
2020/12/07 03:31:29;;;;;;;17.03;7.30;;;5.00;99.90;;;;;;5093711;28;20361;-74
2020/12/07 03:33:54;;;;;;;14.10;6.80;;;5.00;99.90;;;;;;5093634;28;20297;-74
2020/12/07 03:36:20;;;;;;;17.48;6.60;;;5.10;99.90;;;;;;5092217;28;20024;-74
2020/12/07 03:38:45;;;;;;;15.93;7.03;;;5.10;99.90;;;;;;5093722;28;20020;-74
2020/12/07 03:41:11;;;;;;;17.80;6.78;;;5.10;99.90;;;;;;5093211;28;20389;-74
2020/12/07 03:43:36;;;;;;;17.08;6.63;;;5.00;99.90;;;;;;5092183;28;20028;-74
2020/12/07 03:46:02;;;;;;;15.77;7.55;;;5.00;99.90;;;;;;5092173;28;20028;-75
2020/12/07 03:48:27;;;;;;;17.02;8.13;;;5.00;99.90;;;;;;5093407;28;20093;-75
2020/12/07 03:50:53;;;;;;;16.83;6.70;;;5.00;99.90;;;;;;5093770;28;20012;-76
2020/12/07 03:53:19;;;;;;;18.33;6.53;;;5.00;99.90;;;;;;5097314;28;20040;-75
2020/12/07 03:55:44;;;;;;;17.83;7.53;;;5.00;99.90;;;;;;5095666;28;20036;-75
2020/12/07 03:58:10;;;;;;;16.02;6.13;;;5.00;99.90;;;;;;5096859;28;20100;-75
2020/12/07 04:00:35;;;;;;;17.17;6.78;;;5.00;99.90;;;;;;5097636;28;20076;-73
2020/12/07 04:03:04;;;;;;;15.93;6.13;;;5.00;99.90;;;;;;5097147;28;20031;-73
2020/12/07 04:05:35;;;;;;;16.83;6.07;;;5.00;99.90;;;;;;5096917;28;20095;-74
2020/12/07 04:08:00;;;;;;;14.40;5.93;;;5.00;99.90;;;;;;5096570;28;20036;-74
2020/12/07 04:10:25;;;;;;;13.95;6.40;;;5.00;99.90;;;;;;5095310;28;20034;-74
2020/12/07 04:12:54;;;;;;;16.27;6.40;;;5.00;99.90;;;;;;5097220;28;20505;-74
2020/12/07 04:15:19;;;;;;;15.43;6.03;;;5.00;99.90;;;;;;5096959;28;20047;-74
2020/12/07 04:17:45;;;;;;;12.10;5.32;;;5.00;99.90;;;;;;5096538;28;20024;-74
2020/12/07 04:20:10;;;;;;;12.95;5.47;;;5.00;99.90;;;;;;5095216;28;20028;-76
2020/12/07 04:22:36;;;;;;;12.57;6.35;;;5.00;99.90;;;;;;5095184;28;20051;-74
2020/12/07 04:25:02;;;;;;;15.95;6.38;;;5.00;99.90;;;;;;5096509;28;20024;-75
2020/12/07 04:27:28;;;;;;;15.02;5.65;;;5.00;99.90;;;;;;5096406;28;20039;-74
2020/12/07 04:29:53;;;;;;;13.02;5.50;;;4.90;99.90;;;;;;5096867;28;20024;-74
2020/12/07 04:32:19;;;;;;;14.48;6.40;;;5.00;99.90;;;;;;5096057;28;20031;-75
2020/12/07 04:34:44;;;;;;;14.05;5.70;;;5.00;99.90;;;;;;5096652;28;20024;-76
2020/12/07 04:37:10;;;;;;;14.90;5.70;;;5.00;99.90;;;;;;5096153;28;20027;-75
2020/12/07 04:39:35;;;;;;;15.50;6.05;;;5.00;99.90;;;;;;5096671;28;20028;-75
2020/12/07 04:42:02;;;;;;;15.18;5.38;;;5.00;99.90;;;;;;5096330;28;20110;-75
2020/12/07 04:44:28;;;;;;;12.32;5.28;;;5.00;99.90;;;;;;5097093;28;20019;-76
2020/12/07 04:46:54;;;;;;;13.85;6.75;;;5.00;99.90;;;;;;5095683;28;20024;-75
2020/12/07 04:49:21;;;;;;;17.15;6.05;;;5.00;99.90;;;;;;5096222;28;20023;-76
2020/12/07 04:51:49;;;;;;;14.43;5.80;;;5.00;99.90;;;;;;5094911;28;20024;-76
2020/12/07 04:54:15;;;;;;;11.85;5.57;;;5.10;99.90;;;;;;5094943;28;20028;-75
2020/12/07 04:56:41;;;;;;;14.85;4.97;;;5.10;99.90;;;;;;5094764;28;20066;-75
2020/12/07 04:59:10;;;;;;;14.80;5.32;;;5.10;99.90;;;;;;5095840;28;20453;-75
2020/12/07 05:01:36;;;;;;;10.40;5.05;;;5.10;99.90;;;;;;5095722;28;20468;-75
2020/12/07 05:04:02;;;;;;;12.35;5.13;;;5.10;99.90;;;;;;5094165;28;20024;-74
2020/12/07 05:06:29;;;;;;;12.00;5.22;;;5.10;99.90;;;;;;5095599;28;20028;-74
2020/12/07 05:08:56;;;;;;;11.68;5.03;;;5.10;99.90;;;;;;5095295;28;20111;-75
2020/12/07 05:11:21;;;;;;;14.55;4.93;;;5.10;99.90;;;;;;5096139;28;20465;-75
2020/12/07 05:13:52;;;;;;;13.43;4.88;;;5.10;99.90;;;;;;5095845;28;20016;-74
2020/12/07 05:16:17;;;;;;;11.20;4.53;;;5.10;99.90;;;;;;5096111;28;20089;-74
2020/12/07 05:18:43;;;;;;;9.23;4.10;;;5.10;99.90;;;;;;5095661;28;20024;-74
2020/12/07 05:21:09;;;;;;;14.80;4.50;;;5.20;99.90;;;;;;5094292;28;20031;-73
2020/12/07 05:23:41;;;;;;;10.40;4.53;;;5.20;99.90;;;;;;5094040;28;20047;-73
2020/12/07 05:26:10;;;;;;;10.48;4.22;;;5.20;99.90;;;;;;5094275;28;20016;-74
2020/12/07 05:28:43;;;;;;;;;;;5.20;99.90;;;;;;5095367;28;20020;-74
2020/12/07 05:31:18;;;;;;;9.13;3.72;;;5.20;99.90;;;;;;5095499;28;19908;-74
2020/12/07 05:33:46;;;;;;;6.30;2.80;;;5.20;99.90;;;;;;5095455;28;20039;-74
2020/12/07 05:36:13;;;;;;;8.68;3.92;;;5.20;99.90;;;;;;5094074;28;20020;-75
2020/12/07 05:38:38;;;;;;;9.60;3.47;;;5.30;99.90;;;;;;5093792;28;20024;-75
2020/12/07 05:41:05;;;;;;;7.70;2.85;;;5.30;99.90;;;;;;5094819;28;20069;-75
2020/12/07 05:43:31;;;;;;;9.40;3.58;;;5.30;99.90;;;;;;5095169;28;20031;-75
2020/12/07 05:45:58;;;;;;;6.05;3.28;;;5.20;99.90;;;;;;5093874;28;20020;-75
2020/12/07 05:48:29;;;;;;;7.30;3.20;;;5.30;99.90;;;;;;5093856;28;20380;-75
2020/12/07 05:50:55;;;;;;;8.85;3.15;;;5.30;99.90;;;;;;5094599;28;20020;-74
2020/12/07 05:53:24;;;;;;;7.18;3.05;;;5.30;99.90;;;;;;5095028;28;20046;-74
2020/12/07 05:55:50;;;;;;;10.98;3.75;;;5.30;99.90;;;;;;5093590;28;20012;-74
2020/12/07 05:58:19;;;;;;;10.10;3.08;;;5.30;99.90;;;;;;5094110;28;20097;-74
2020/12/07 06:00:46;;;;;;;6.57;3.03;;;5.30;99.90;;;;;;5094814;28;20031;-74
2020/12/07 06:03:13;;;;;;;8.95;3.15;;;5.30;99.90;;;;;;5093515;28;20031;-74
2020/12/07 06:05:41;;;;;;;5.78;2.33;;;5.30;99.90;;;;;;5094663;28;20028;-74
2020/12/07 06:08:09;;;;;;;9.70;2.38;;;5.30;99.90;;;;;;5094236;28;20081;-74
2020/12/07 06:10:50;;;;;;;5.32;2.03;;;5.30;99.90;;;;;;5093387;28;20020;-74
2020/12/07 06:13:20;;;;;;;5.28;1.88;;;5.40;99.90;;;;;;5093433;28;20427;-73
2020/12/07 06:15:47;;;;;;;7.07;2.47;;;5.40;99.90;;;;;;5093863;28;20028;-74
2020/12/07 06:18:33;;;;;;;5.22;2.03;;;5.50;99.90;;;;;;5094449;28;20031;-74
2020/12/07 06:21:16;;;;;;;8.10;2.38;;;5.50;99.90;;;;;;5093020;28;20370;-74
2020/12/07 06:23:43;;;;;;;8.05;3.35;;;5.50;99.90;;;;;;5093332;28;20031;-74
2020/12/07 06:26:12;;;;;;;6.55;2.47;;;5.50;99.90;;;;;;5093043;28;20391;-75
2020/12/07 06:28:40;;;;;;;4.20;1.60;;;5.50;99.90;;;;;;5093123;28;20384;-75
2020/12/07 06:31:08;;;;;;;8.80;2.05;;;5.50;99.90;;;;;;5094549;28;20023;-75
2020/12/07 06:33:46;;;;;;;4.57;2.60;;;5.50;99.90;;;;;;5094153;28;20468;-76
2020/12/07 06:36:33;;;;;;;7.20;1.67;;;5.60;99.90;;;;;;5092627;28;20669;-75
2020/12/07 06:39:00;;;;;;;4.78;2.10;;;5.50;99.90;;;;;;5094383;28;20115;-75
2020/12/07 06:41:34;;;;;;;7.00;1.95;;;5.50;99.90;;;;;;5090580;28;20020;-75
2020/12/07 06:44:01;;;;;;;6.40;2.22;;;5.60;99.90;;;;;;5093599;28;20031;-77
2020/12/07 06:47:04;;;;;;;7.15;2.33;;;5.60;99.90;;;;;;5092406;28;20023;-76
2020/12/07 06:49:58;;;;;;;6.53;2.20;;;5.50;99.90;;;;;;5073908;28;20020;-77
2020/12/07 06:52:29;;;;;;;7.75;2.17;;;5.50;99.90;;;;;;5091483;28;20028;-74
2020/12/07 06:55:10;;;;;;;4.63;2.00;;;5.60;99.90;;;;;;5094027;28;20028;-74
2020/12/07 06:57:41;;;;;;;7.93;2.45;;;5.50;99.90;;;;;;5093494;28;20500;-74
2020/12/07 07:00:16;;;;;;;6.22;1.45;;;5.60;99.90;;;;;;5092805;28;20039;-74
2020/12/07 07:02:47;;;;;;;4.30;0.95;;;5.60;99.90;;;;;;5094276;28;20055;-74
2020/12/07 07:05:14;;;;;;;4.20;1.02;;;5.60;99.90;;;;;;5093561;28;20028;-76
2020/12/07 07:07:40;;;;;;;2.50;0.90;;;5.60;99.90;;;;;;5093522;28;20129;-76
2020/12/07 07:10:08;;;;;;;5.53;1.20;;;5.60;99.90;;;;;;5093311;28;20111;-75
2020/12/07 07:12:35;;;;;;;4.43;1.23;;;5.70;99.90;;;;;;5094624;28;20032;-75
2020/12/07 07:15:01;;;;;;;4.03;1.90;;;5.60;99.90;;;;;;5093066;28;20020;-76
2020/12/07 07:17:29;;;;;;;7.32;2.33;;;5.60;99.90;;;;;;5092789;28;20130;-74
2020/12/07 07:19:55;;;;;;;8.40;2.57;;;5.60;99.90;;;;;;5093789;28;20538;-75
2020/12/07 07:22:21;;;;;;;5.53;1.75;;;5.60;99.90;;;;;;5093017;28;20021;-74
2020/12/07 07:25:21;;;;;;;7.38;2.33;;;5.70;99.90;;;;;;5094237;28;20016;-75
2020/12/07 07:30:18;;;;;;;6.72;2.63;;;5.60;99.90;;;;;;5098328;28;20450;-74
2020/12/07 07:32:48;;;;;;;6.32;2.80;;;5.60;99.90;;;;;;5096657;28;20016;-76
2020/12/07 07:35:16;;;;;;;9.60;3.85;;;5.60;99.90;;;;;;5097652;28;20046;-76
2020/12/07 07:37:42;;;;;;;10.77;3.20;;;5.60;99.90;;;;;;5096576;28;20060;-76
2020/12/07 07:40:11;;;;;;;8.30;3.72;;;5.50;99.90;;;;;;5096876;28;20063;-76
2020/12/07 07:43:03;;;;;;;8.18;3.72;;;5.50;99.90;;;;;;5096086;28;20020;-76
2020/12/07 07:45:38;;;;;;;11.00;4.88;;;5.50;99.90;;;;;;5097663;28;20023;-76
2020/12/07 07:48:22;;;;;;;10.45;3.83;;;5.40;99.90;;;;;;5097485;28;20099;-76
2020/12/07 07:57:58;;;;;;;9.75;4.45;;;5.50;99.90;;;;;;5097521;28;20028;-77
2020/12/07 08:02:01;;;;;;;12.52;4.63;;;5.50;99.90;;;;;;5097231;28;20035;-76
2020/12/07 08:17:52;;;;;;;14.18;5.55;;;5.60;99.90;;;;;;5096587;28;20035;-76
2020/12/07 08:20:19;;;;;;;12.27;5.88;;;5.60;99.90;;;;;;5094933;28;20020;-77
2020/12/07 08:22:58;;;;;;;10.65;5.55;;;5.50;99.90;;;;;;5095092;28;20027;-77
2020/12/07 08:25:47;;;;;;;11.68;5.80;;;5.60;99.90;;;;;;5096190;28;20392;-76
2020/12/07 08:28:30;;;;;;;10.13;4.75;;;5.50;99.90;;;;;;5094921;28;20020;-77
2020/12/07 08:31:18;;;;;;;12.48;5.30;;;5.50;99.90;;;;;;5096365;28;20077;-76
2020/12/07 08:33:53;;;;;;;10.17;4.67;;;5.50;99.90;;;;;;5094960;28;20487;-76
2020/12/07 08:36:18;;;;;;;10.05;4.32;;;5.60;99.90;;;;;;5096105;28;20468;-76
2020/12/07 08:38:45;;;;;;;13.02;6.03;;;5.60;99.90;;;;;;5093801;28;20050;-77
2020/12/07 08:41:19;;;;;;;11.98;4.40;;;5.50;99.90;;;;;;5096151;28;20097;-77
2020/12/07 08:43:50;;;;;;;11.95;4.82;;;5.50;99.90;;;;;;5095204;28;20358;-77
2020/12/07 08:46:19;;;;;;;9.90;4.68;;;5.50;99.90;;;;;;5095790;28;20024;-77
2020/12/07 08:48:46;;;;;;;10.88;3.88;;;5.50;99.90;;;;;;5095677;28;20115;-76
2020/12/07 08:51:11;;;;;;;8.60;4.05;;;5.50;99.90;;;;;;5095743;28;20031;-76
2020/12/07 08:53:38;;;;;;;12.77;5.13;;;5.60;99.90;;;;;;5096131;28;20487;-77
2020/12/07 08:56:08;;;;;;;10.15;3.85;;;5.50;99.90;;;;;;5095555;28;20492;-76
2020/12/07 08:58:35;;;;;;;9.55;4.07;;;5.50;99.90;;;;;;5095530;28;20028;-77
2020/12/07 09:01:03;;;;;;;8.65;3.67;;;5.40;99.90;;;;;;5095557;28;20038;-77
2020/12/07 09:03:32;;;;;;;10.07;4.20;;;5.50;99.90;;;;;;5095806;28;20084;-76
2020/12/07 09:05:59;;;;;;;9.23;3.45;;;5.60;99.90;;;;;;5094330;28;20020;-77
2020/12/07 09:08:25;;;;;;;8.15;2.95;;;5.60;99.90;;;;;;5127679;22;20565;-76
2020/12/07 09:10:50;;;;;;;7.75;3.03;;;5.60;99.90;;;;;;5073867;28;20016;-76
2020/12/07 09:13:16;;;;;;;10.18;3.17;;;5.70;99.90;;;;;;5073809;28;20092;-76
2020/12/07 09:15:41;;;;;;;7.90;2.97;;;5.70;99.90;;;;;;5073786;28;20036;-76
2020/12/07 09:18:07;;;;;;;5.47;2.47;;;5.70;99.90;;;;;;5075291;28;20107;-76
2020/12/07 09:20:33;;;;;;;9.32;2.95;;;5.70;99.90;;;;;;5074906;28;20036;-76
2020/12/07 09:22:58;;;;;;;6.10;2.15;;;5.70;99.90;;;;;;5074703;28;20056;-75
2020/12/07 09:25:24;;;;;;;6.43;1.77;;;5.70;99.90;;;;;;5073487;28;20024;-75
2020/12/07 09:27:49;;;;;;;5.05;2.20;;;5.80;99.90;;;;;;5073147;28;20497;-75
2020/12/07 09:30:15;;;;;;;10.02;2.15;;;5.90;99.90;;;;;;5074653;28;20020;-75
2020/12/07 09:32:40;;;;;;;4.63;1.42;;;5.80;99.90;;;;;;5073299;28;20075;-75
2020/12/07 09:35:08;;;;;;;6.95;1.83;;;5.80;99.90;;;;;;5073231;28;20469;-75
2020/12/07 09:37:34;;;;;;;5.47;2.50;;;5.80;99.90;;;;;;5074339;28;20028;-75
2020/12/07 09:40:00;;;;;;;7.68;2.38;;;5.80;99.90;;;;;;5074328;28;20024;-75
2020/12/07 09:42:25;;;;;;;6.47;2.83;;;5.70;99.90;;;;;;5075202;28;20028;-75
2020/12/07 09:44:51;;;;;;;11.15;3.65;;;5.80;99.90;;;;;;5074384;28;20078;-75
2020/12/07 09:47:17;;;;;;;9.15;4.07;;;5.80;99.90;;;;;;5074395;28;20105;-75
2020/12/07 09:49:42;;;;;;;7.15;3.25;;;5.80;99.90;;;;;;5072148;28;20056;-75
2020/12/07 09:52:08;;;;;;;7.80;3.53;;;5.80;99.90;;;;;;5074889;28;20021;-75
2020/12/07 09:54:37;;;;;;;7.18;3.08;;;5.80;99.90;;;;;;5074790;28;20024;-75
2020/12/07 09:57:04;;;;;;;7.70;3.55;;;5.80;99.90;;;;;;5074333;28;20024;-75
2020/12/07 09:59:30;;;;;;;7.75;3.55;;;5.80;99.90;;;;;;5073388;28;20074;-77
2020/12/07 10:01:55;;;;;;;7.90;4.00;;;5.80;99.90;;;;;;5074191;28;20470;-75
2020/12/07 10:04:21;;;;;;;5.82;2.67;;;5.70;99.90;;;;;;5074129;28;20129;-75
2020/12/07 10:06:46;;;;;;;8.15;3.45;;;5.70;99.90;;;;;;5073919;28;20103;-75
2020/12/07 10:09:12;;;;;;;6.80;3.63;;;5.70;99.90;;;;;;5074026;28;20024;-75
2020/12/07 10:11:40;;;;;;;6.05;3.53;;;5.80;99.90;;;;;;5073989;28;20024;-75
2020/12/07 10:14:06;;;;;;;10.68;3.75;;;5.70;99.90;;;;;;5072701;28;20074;-75
2020/12/07 10:16:31;;;;;;;7.82;4.03;;;5.70;99.90;;;;;;5074585;28;20502;-75
2020/12/07 10:18:57;;;;;;;7.47;3.92;;;5.70;99.90;;;;;;5073788;28;20048;-75
2020/12/07 10:21:26;;;;;;;7.90;3.95;;;5.60;99.90;;;;;;5073669;28;20020;-75
2020/12/07 10:23:52;;;;;;;;;;;5.60;99.90;;;;;;5074091;28;20107;-75
2020/12/07 10:26:24;;;;;;;8.13;4.32;;;5.70;99.90;;;;;;5073827;28;19951;-75
2020/12/07 10:28:54;;;;;;;9.13;4.35;;;5.70;99.90;;;;;;5072481;28;20397;-75
2020/12/07 10:31:20;;;;;;;8.93;5.28;;;5.70;99.90;;;;;;5073805;28;20099;-74
2020/12/07 10:33:47;;;;;;;7.88;3.95;;;5.80;99.90;;;;;;5072425;28;20074;-74
2020/12/07 10:36:19;;;;;;;11.85;5.45;;;5.80;99.90;;;;;;5072453;28;20020;-75
2020/12/07 10:38:46;;;;;;;10.57;5.00;;;5.80;99.90;;;;;;5072474;28;20032;-75
2020/12/07 10:41:13;;;;;;;8.77;4.18;;;5.70;99.90;;;;;;5073682;28;20029;-74
2020/12/07 10:43:42;;;;;;;8.63;4.90;;;5.70;99.90;;;;;;5073573;28;20551;-74
2020/12/07 10:46:10;;;;;;;9.23;4.60;;;5.70;99.90;;;;;;5072374;28;20059;-75
2020/12/07 10:48:35;;;;;;;9.98;5.18;;;5.80;99.90;;;;;;5074126;28;20020;-74
2020/12/07 10:51:01;;;;;;;10.63;5.20;;;5.80;99.90;;;;;;5073542;28;20500;-74
2020/12/07 10:53:27;;;;;;;9.75;4.75;;;5.80;99.90;;;;;;5073660;28;20024;-74
2020/12/07 10:55:52;;;;;;;9.38;4.80;;;5.80;99.90;;;;;;5073362;28;20029;-74
2020/12/07 10:58:19;;;;;;;11.73;6.05;;;5.90;99.90;;;;;;5073287;28;20029;-74
2020/12/07 11:00:44;;;;;;;13.60;5.97;;;5.90;99.90;;;;;;5074629;28;20036;-74
2020/12/07 11:03:11;;;;;;;12.02;5.35;;;6.00;99.90;;;;;;5077296;28;20025;-74
2020/12/07 11:05:38;;;;;;;10.23;5.82;;;6.10;99.90;;;;;;5077492;28;20017;-74
2020/12/07 11:08:11;;;;;;;11.23;5.32;;;6.10;99.90;;;;;;5077395;28;20487;-74
2020/12/07 11:10:37;;;;;;;13.32;6.45;;;6.20;99.90;;;;;;5077776;28;20031;-74
2020/12/07 11:13:10;;;;;;;16.23;6.57;;;6.20;99.90;;;;;;5077393;28;20024;-74
2020/12/07 11:15:35;;;;;;;16.52;8.15;;;6.30;99.90;;;;;;5077308;28;20020;-74
2020/12/07 11:18:01;;;;;;;18.98;8.80;;;6.20;99.90;;;;;;5077345;28;20362;-74
2020/12/07 11:20:26;;;;;;;19.25;9.52;;;6.20;99.90;;;;;;5077244;28;20035;-74
2020/12/07 11:22:52;;;;;;;21.65;9.82;;;6.20;99.90;;;;;;5075703;28;20036;-74
2020/12/07 11:25:17;;;;;;;22.42;9.82;;;6.10;99.90;;;;;;5077311;28;20073;-74
2020/12/07 11:27:43;;;;;;;17.85;9.80;;;6.10;99.90;;;;;;5076885;28;20465;-74
2020/12/07 11:30:08;;;;;;;26.48;11.40;;;5.90;99.90;;;;;;5077133;28;20021;-74
2020/12/07 11:32:34;;;;;;;24.00;11.05;;;6.00;99.90;;;;;;5077447;28;20029;-74
2020/12/07 11:34:59;;;;;;;24.17;10.80;;;5.90;99.90;;;;;;5076942;28;20025;-74
2020/12/07 11:37:25;;;;;;;22.08;10.68;;;5.90;99.90;;;;;;5076773;28;20025;-74
2020/12/07 11:39:56;;;;;;;24.83;10.43;;;5.90;99.90;;;;;;5076765;28;20166;-74
2020/12/07 11:44:47;;;;;;;24.60;11.73;;;5.90;99.90;;;;;;5077421;28;20373;-74
2020/12/07 11:47:14;;;;;;;23.17;11.32;;;5.80;99.90;;;;;;5075144;28;20021;-75
2020/12/07 11:49:40;;;;;;;21.52;10.77;;;5.80;99.90;;;;;;5077154;28;20024;-74
2020/12/07 11:52:06;;;;;;;23.52;10.18;;;5.70;99.90;;;;;;5076516;28;20393;-74
2020/12/07 11:54:32;;;;;;;22.88;10.30;;;5.70;99.90;;;;;;5076600;28;20029;-74
2020/12/07 11:57:05;;;;;;;23.02;10.48;;;5.60;99.90;;;;;;5076483;28;20028;-74
2020/12/07 11:59:31;;;;;;;29.08;12.10;;;5.60;99.90;;;;;;5076498;28;20469;-75
2020/12/07 12:01:56;;;;;;;26.40;11.05;;;5.60;99.90;;;;;;5075066;28;20020;-74
2020/12/07 12:04:22;;;;;;;31.58;12.20;;;5.60;99.90;;;;;;5075274;28;20434;-75
2020/12/07 12:06:47;;;;;;;24.40;11.65;;;5.60;99.90;;;;;;5074830;28;20028;-74
2020/12/07 12:09:14;;;;;;;27.33;10.57;;;5.60;99.90;;;;;;5076074;28;20066;-74
2020/12/07 12:11:41;;;;;;;29.23;13.00;;;5.60;99.90;;;;;;5074585;28;20528;-74
2020/12/07 12:14:09;;;;;;;31.73;13.32;;;5.50;99.90;;;;;;5076001;28;20043;-74
2020/12/07 12:16:35;;;;;;;29.40;12.73;;;5.60;99.90;;;;;;5076332;28;20028;-74
2020/12/07 12:19:04;;;;;;;30.63;13.02;;;5.60;99.90;;;;;;5075138;28;20107;-74
2020/12/07 12:21:30;;;;;;;28.98;11.88;;;5.60;99.90;;;;;;5074717;28;20017;-74
2020/12/07 12:23:56;;;;;;;26.75;13.30;;;5.60;99.90;;;;;;5074755;28;20035;-75
2020/12/07 12:26:22;;;;;;;33.60;13.43;;;5.60;99.90;;;;;;5076158;28;20025;-75
2020/12/07 12:28:49;;;;;;;31.80;13.82;;;5.60;99.90;;;;;;5074752;28;20028;-75
2020/12/07 12:31:14;;;;;;;29.95;13.10;;;5.50;99.90;;;;;;5075852;28;20090;-74
2020/12/07 12:33:44;;;;;;;31.42;12.90;;;5.50;99.90;;;;;;5075925;28;20024;-75
2020/12/07 12:36:18;;;;;;;34.03;13.82;;;5.50;99.90;;;;;;5074507;28;20420;-75
2020/12/07 12:38:44;;;;;;;30.02;12.90;;;5.40;99.90;;;;;;5075613;28;20081;-75
2020/12/07 12:41:11;;;;;;;28.45;12.95;;;5.40;99.90;;;;;;5074369;28;20024;-75
2020/12/07 12:43:36;;;;;;;31.33;13.02;;;5.40;99.90;;;;;;5074443;28;20424;-74
2020/12/07 12:46:05;;;;;;;34.75;14.43;;;5.40;99.90;;;;;;5075578;28;20024;-75
2020/12/07 12:48:31;;;;;;;31.13;12.80;;;5.40;99.90;;;;;;5075476;28;20029;-75
2020/12/07 12:50:57;;;;;;;34.50;13.30;;;5.50;99.90;;;;;;5076034;28;20495;-75
2020/12/07 12:53:23;;;;;;;36.90;13.38;;;5.50;99.90;;;;;;5076057;28;20020;-75
2020/12/07 12:55:48;;;;;;;36.40;14.75;;;5.50;99.90;;;;;;5076078;28;20020;-76
2020/12/07 12:58:14;;;;;;;36.17;14.93;;;5.50;99.90;;;;;;5074276;28;20380;-75
2020/12/07 13:00:39;;;;;;;39.22;16.00;;;5.50;99.90;;;;;;5074289;28;20354;-76
2020/12/07 13:03:05;;;;;;;32.17;13.63;;;5.50;99.90;;;;;;5075105;28;20388;-76
2020/12/07 13:05:30;;;;;;;34.03;14.07;;;5.60;99.90;;;;;;5075344;28;20533;-76
2020/12/07 13:07:56;;;;;;;35.50;14.05;;;5.50;99.90;;;;;;5075200;28;20020;-76
2020/12/07 13:10:22;;;;;;;41.28;15.30;;;5.50;99.90;;;;;;5075230;28;20034;-76
2020/12/07 13:12:47;;;;;;;35.35;14.65;;;5.50;99.90;;;;;;5075623;28;20397;-76
2020/12/07 13:15:14;;;;;;;36.17;15.15;;;5.50;99.90;;;;;;5074173;28;20029;-77
2020/12/07 13:17:41;;;;;;;40.03;15.20;;;5.50;99.90;;;;;;5075607;28;20022;-77